Time;durP1;ratioP1;P1;durP2;ratioP2;P2;SDS_P1;SDS_P2;PMS_P1;PMS_P2;Temp;Humidity;BMP_temperature;BMP_pressure;BME280_temperature;BME280_humidity;BME280_pressure;Samples;Min_cycle;Max_cycle;Signal;HPM_P1;HPM_P2
2021/09/18 00:01:13;;;;;;;2.00;0.40;;;;;;;12.53;77.24;99942.73;112211;1205;22487;-59
2021/09/18 00:03:44;;;;;;;1.10;0.30;;;;;;;12.50;77.35;99941.23;112014;1206;23801;-61
2021/09/18 00:06:17;;;;;;;2.40;0.40;;;;;;;12.48;77.37;99941.98;111971;1206;25231;-59
2021/09/18 00:08:48;;;;;;;4.70;0.40;;;;;;;12.46;77.45;99945.55;112195;1200;22437;-59
2021/09/18 00:11:19;;;;;;;3.10;0.40;;;;;;;12.44;77.56;99946.30;112192;1206;22383;-60
2021/09/18 00:13:50;;;;;;;4.50;0.40;;;;;;;12.43;77.67;99946.13;112218;1206;25153;-60
2021/09/18 00:16:21;;;;;;;3.70;0.50;;;;;;;12.42;77.61;99948.11;112162;1205;22447;-59
2021/09/18 00:18:52;;;;;;;1.90;0.40;;;;;;;12.42;77.89;99952.44;112093;1206;25214;-59
2021/09/18 00:21:24;;;;;;;2.70;0.40;;;;;;;12.43;78.09;99953.27;112067;1205;24554;-61
2021/09/18 00:23:54;;;;;;;1.80;0.40;;;;;;;12.45;78.22;99950.11;112340;1206;22396;-62
2021/09/18 00:26:25;;;;;;;1.80;0.40;;;;;;;12.46;78.26;99954.09;112151;1205;24171;-59
2021/09/18 00:28:56;;;;;;;5.10;0.30;;;;;;;12.49;78.24;99952.02;112183;1206;25105;-62
2021/09/18 00:31:29;;;;;;;2.80;0.40;;;;;;;12.50;78.30;99947.91;112452;1206;22411;-59
2021/09/18 00:34:00;;;;;;;5.30;0.40;;;;;;;12.52;78.32;99950.41;112084;1205;22447;-60
2021/09/18 00:36:32;;;;;;;1.90;0.30;;;;;;;12.54;78.30;99947.02;112170;1205;22460;-59
2021/09/18 00:39:03;;;;;;;1.00;0.30;;;;;;;12.57;78.29;99949.98;112332;1206;22565;-60
2021/09/18 00:41:34;;;;;;;1.40;0.40;;;;;;;12.58;78.47;99949.69;112024;1206;25208;-60
2021/09/18 00:44:08;;;;;;;1.70;0.50;;;;;;;12.58;78.41;99950.80;112391;1206;22798;-62
2021/09/18 00:46:39;;;;;;;3.80;0.50;;;;;;;12.59;78.41;99951.33;112181;1206;24911;-61
2021/09/18 00:49:10;;;;;;;3.10;0.30;;;;;;;12.60;78.50;99952.55;112270;1205;24089;-61
2021/09/18 00:51:41;;;;;;;3.20;0.40;;;;;;;12.59;78.46;99948.73;112151;1205;22459;-61
2021/09/18 00:54:15;;;;;;;1.50;0.40;;;;;;;12.59;78.53;99956.98;112132;1206;25463;-59
2021/09/18 00:56:47;;;;;;;2.80;0.40;;;;;;;12.58;78.59;99959.62;112241;1206;22410;-61
2021/09/18 00:59:17;;;;;;;2.20;0.40;;;;;;;12.58;78.65;99959.67;112225;1207;22458;-60
2021/09/18 01:01:48;;;;;;;3.50;0.40;;;;;;;12.57;78.65;99961.80;112182;1205;23161;-58
2021/09/18 01:04:19;;;;;;;1.80;0.40;;;;;;;12.56;78.84;99959.30;112096;1206;25173;-60
2021/09/18 01:06:50;;;;;;;2.00;0.50;;;;;;;12.56;78.78;99960.98;112054;1206;25209;-59
2021/09/18 01:09:26;;;;;;;1.70;0.40;;;;;;;12.56;78.80;99959.96;112145;1207;22453;-59
2021/09/18 01:11:57;;;;;;;2.50;0.40;;;;;;;12.56;78.87;99958.59;112312;1205;22460;-60
2021/09/18 01:14:28;;;;;;;2.00;0.30;;;;;;;12.56;78.97;99953.14;112191;1206;24096;-60
2021/09/18 01:17:00;;;;;;;3.20;0.50;;;;;;;12.57;78.77;99957.33;112282;1207;22714;-59
2021/09/18 01:19:32;;;;;;;3.00;0.40;;;;;;;12.57;78.89;99949.94;112206;1205;22551;-59
2021/09/18 01:22:04;;;;;;;2.30;0.40;;;;;;;12.57;79.03;99953.86;112135;1206;22486;-60
2021/09/18 01:24:35;;;;;;;3.10;0.40;;;;;;;12.57;78.92;99950.70;112098;1206;22459;-61
2021/09/18 01:27:07;;;;;;;1.40;0.40;;;;;;;12.57;78.97;99950.85;112188;1206;24073;-59
2021/09/18 01:29:38;;;;;;;2.10;0.40;;;;;;;12.57;79.03;99954.92;113026;1206;22518;-61
2021/09/18 01:32:10;;;;;;;2.90;0.40;;;;;;;12.57;79.01;99953.30;112647;1205;23805;-60
2021/09/18 01:34:42;;;;;;;4.30;0.50;;;;;;;12.57;79.08;99951.31;112190;1206;25511;-59
2021/09/18 01:37:13;;;;;;;2.60;0.30;;;;;;;12.58;79.07;99947.95;112136;1205;22376;-60
2021/09/18 01:39:44;;;;;;;2.20;0.20;;;;;;;12.58;79.04;99946.64;112103;1207;25442;-59
2021/09/18 01:42:15;;;;;;;2.90;0.50;;;;;;;12.59;79.11;99946.70;112129;1206;22460;-60
2021/09/18 01:44:46;;;;;;;0.90;0.30;;;;;;;12.60;79.12;99948.33;112130;1206;22476;-58
2021/09/18 01:47:19;;;;;;;1.90;0.40;;;;;;;12.60;79.15;99946.80;112159;1206;22539;-62
2021/09/18 01:49:50;;;;;;;2.10;0.50;;;;;;;12.60;79.15;99944.35;112242;1206;22455;-58
2021/09/18 01:52:32;;;;;;;5.10;0.50;;;;;;;12.61;79.20;99943.34;112200;1206;22460;-61
2021/09/18 01:55:04;;;;;;;2.10;0.50;;;;;;;12.61;79.15;99939.17;112071;1206;23799;-59
2021/09/18 01:57:35;;;;;;;2.80;0.60;;;;;;;12.62;79.07;99938.41;112249;1206;22439;-61
2021/09/18 02:00:09;;;;;;;2.50;0.30;;;;;;;12.63;79.09;99939.03;112266;1206;25223;-59
2021/09/18 02:02:40;;;;;;;1.70;0.40;;;;;;;12.64;79.25;99940.67;112165;1206;23689;-60
2021/09/18 02:05:13;;;;;;;1.70;0.40;;;;;;;12.65;79.21;99938.13;112108;1207;22408;-60
2021/09/18 02:07:44;;;;;;;1.80;0.30;;;;;;;12.66;79.20;99934.83;112155;1206;22454;-61
2021/09/18 02:10:17;;;;;;;1.50;0.40;;;;;;;12.66;79.12;99934.20;112221;1206;25106;-59
2021/09/18 02:12:50;;;;;;;1.30;0.30;;;;;;;12.67;79.36;99933.81;112217;1206;22479;-60
2021/09/18 02:15:23;;;;;;;4.20;0.40;;;;;;;12.68;79.22;99935.95;112281;1205;22459;-60
2021/09/18 02:17:55;;;;;;;1.30;0.40;;;;;;;12.68;79.17;99936.26;112191;1206;25110;-59
2021/09/18 02:20:30;;;;;;;1.70;0.40;;;;;;;12.70;79.13;99936.31;112216;1206;24083;-58
2021/09/18 02:23:01;;;;;;;1.80;0.40;;;;;;;12.70;79.10;99936.16;112219;1207;24214;-58
2021/09/18 02:25:33;;;;;;;3.20;0.40;;;;;;;12.70;79.15;99939.44;112320;1207;22416;-59
2021/09/18 02:28:05;;;;;;;2.20;0.40;;;;;;;12.70;79.18;99938.67;112135;1206;24584;-59
2021/09/18 02:30:38;;;;;;;1.40;0.40;;;;;;;12.71;79.13;99935.77;112352;1206;22442;-62
2021/09/18 02:33:09;;;;;;;2.80;0.50;;;;;;;12.70;79.19;99931.64;112251;1205;22607;-59
2021/09/18 02:35:41;;;;;;;1.50;0.40;;;;;;;12.70;79.19;99926.48;112181;1206;22377;-60
2021/09/18 02:38:12;;;;;;;2.80;0.50;;;;;;;12.70;79.10;99921.30;112341;1206;22473;-60
2021/09/18 02:40:44;;;;;;;4.70;0.40;;;;;;;12.70;79.15;99920.75;112243;1207;22458;-59
2021/09/18 02:43:15;;;;;;;1.80;0.40;;;;;;;12.70;79.12;99917.58;112201;1207;25107;-61
2021/09/18 02:45:46;;;;;;;3.40;0.40;;;;;;;12.69;79.14;99914.76;112189;1206;22462;-59
2021/09/18 02:48:17;;;;;;;3.20;0.50;;;;;;;12.69;79.27;99914.16;112153;1207;22448;-62
2021/09/18 02:50:49;;;;;;;2.10;0.40;;;;;;;12.70;79.27;99921.24;112173;1206;23045;-59
2021/09/18 02:53:21;;;;;;;1.80;0.50;;;;;;;12.68;79.36;99923.21;112312;1207;22441;-59
2021/09/18 02:55:51;;;;;;;2.60;0.30;;;;;;;12.66;79.31;99919.76;112237;1206;23651;-59
2021/09/18 02:58:22;;;;;;;3.60;1.10;;;;;;;12.64;79.23;99917.84;112010;1207;22460;-59
2021/09/18 03:00:53;;;;;;;1.10;0.30;;;;;;;12.63;79.31;99923.45;112165;1205;22403;-59
2021/09/18 03:03:24;;;;;;;3.50;0.50;;;;;;;12.61;79.24;99919.11;112105;1206;22546;-59
2021/09/18 03:05:56;;;;;;;2.70;0.50;;;;;;;12.59;79.22;99919.15;112095;1206;25660;-61
2021/09/18 03:08:27;;;;;;;2.20;0.60;;;;;;;12.58;79.12;99912.77;112283;1207;26682;-61
2021/09/18 03:10:59;;;;;;;4.50;1.00;;;;;;;12.56;79.17;99910.89;112310;1206;22435;-60
2021/09/18 03:13:29;;;;;;;3.20;1.00;;;;;;;12.55;79.09;99914.59;112299;1206;26326;-61
2021/09/18 03:16:01;;;;;;;3.10;0.90;;;;;;;12.54;79.17;99914.54;112227;1206;24018;-60
2021/09/18 03:18:33;;;;;;;5.00;0.90;;;;;;;12.53;79.20;99917.08;112140;1206;24077;-61
2021/09/18 03:21:05;;;;;;;3.30;0.90;;;;;;;12.53;79.13;99910.70;112233;1209;22469;-61
2021/09/18 03:23:36;;;;;;;3.70;0.80;;;;;;;12.52;79.24;99911.57;112257;1206;22484;-62
2021/09/18 03:26:07;;;;;;;3.50;0.80;;;;;;;12.51;79.20;99908.05;112159;1206;22466;-61
2021/09/18 03:28:38;;;;;;;3.40;1.10;;;;;;;12.50;79.22;99910.17;112150;1206;23625;-62
2021/09/18 03:31:18;;;;;;;;;;;;;;;;;;;;;
2021/09/18 03:33:50;;;;;;;2.90;1.00;;;;;;;12.49;79.30;99911.35;112063;1210;24207;-59
2021/09/18 03:36:22;;;;;;;5.50;0.70;;;;;;;12.48;79.14;99907.92;112146;1207;22440;-58
2021/09/18 03:39:14;;;;;;;3.40;0.70;;;;;;;12.46;79.49;99909.49;112085;1211;22562;-58
2021/09/18 03:41:45;;;;;;;2.50;0.60;;;;;;;12.45;79.40;99913.52;112110;1206;22498;-59
2021/09/18 03:44:17;;;;;;;4.50;0.90;;;;;;;12.45;79.50;99917.23;112115;1206;22460;-60
2021/09/18 03:46:47;;;;;;;4.90;0.60;;;;;;;12.44;79.47;99915.85;112187;1206;22524;-61
2021/09/18 03:49:21;;;;;;;5.30;0.50;;;;;;;12.42;79.48;99916.95;112278;1208;24148;-59
2021/09/18 03:51:52;;;;;;;2.30;0.50;;;;;;;12.40;79.36;99916.90;112100;1206;25206;-58
2021/09/18 03:54:23;;;;;;;2.40;0.60;;;;;;;12.39;79.49;99917.20;112252;1207;22448;-62
2021/09/18 03:56:55;;;;;;;3.50;0.70;;;;;;;12.38;79.58;99915.91;112275;1206;22455;-58
2021/09/18 03:59:26;;;;;;;3.00;0.60;;;;;;;12.37;79.62;99917.75;112079;1207;22461;-60
2021/09/18 04:01:57;;;;;;;3.20;0.60;;;;;;;12.37;79.65;99916.73;112295;1207;22462;-60
2021/09/18 04:04:28;;;;;;;3.20;1.00;;;;;;;12.38;79.62;99916.52;112367;1208;25030;-61
2021/09/18 04:06:59;;;;;;;4.50;0.60;;;;;;;12.38;79.67;99921.91;112132;1209;24080;-61
2021/09/18 04:09:30;;;;;;;3.80;0.70;;;;;;;12.38;79.70;99920.95;112114;1205;22404;-61
2021/09/18 04:12:02;;;;;;;3.90;0.80;;;;;;;12.38;79.65;99919.21;112096;1207;22528;-59
2021/09/18 04:14:33;;;;;;;3.50;0.80;;;;;;;12.37;79.73;99918.97;112334;1205;22447;-61
2021/09/18 04:17:04;;;;;;;2.30;0.70;;;;;;;12.37;79.67;99917.79;112211;1205;23288;-59
2021/09/18 04:19:35;;;;;;;3.10;0.80;;;;;;;12.36;79.86;99916.40;112140;1207;22448;-59
2021/09/18 04:22:07;;;;;;;3.60;0.70;;;;;;;12.35;79.85;99918.75;112218;1206;25228;-58
2021/09/18 04:24:39;;;;;;;2.50;0.60;;;;;;;12.35;79.87;99920.52;112110;1206;25063;-59
2021/09/18 04:27:10;;;;;;;3.80;0.60;;;;;;;12.35;79.76;99921.85;112339;1207;22453;-58
2021/09/18 04:29:41;;;;;;;2.30;0.50;;;;;;;12.34;79.64;99920.12;112153;1207;22506;-61
2021/09/18 04:32:12;;;;;;;5.30;0.70;;;;;;;12.34;79.71;99914.51;112490;1206;22459;-61
2021/09/18 04:34:43;;;;;;;3.50;0.70;;;;;;;12.34;79.68;99917.81;113508;1206;22399;-61
2021/09/18 04:37:14;;;;;;;4.00;0.70;;;;;;;12.33;79.63;99920.58;112284;1207;24120;-61
2021/09/18 04:39:46;;;;;;;3.00;0.60;;;;;;;12.32;79.78;99921.02;112191;1205;25469;-61
2021/09/18 04:42:17;;;;;;;1.70;0.60;;;;;;;12.33;79.68;99919.45;112074;1207;24135;-61
2021/09/18 04:45:10;;;;;;;3.20;0.60;;;;;;;12.33;79.65;99922.81;112292;1206;25431;-59
2021/09/18 04:47:41;;;;;;;1.30;0.40;;;;;;;12.34;79.53;99920.36;112058;1205;25062;-61
2021/09/18 04:50:13;;;;;;;1.40;0.50;;;;;;;12.34;79.63;99926.98;112196;1209;22443;-58
2021/09/18 04:52:44;;;;;;;2.50;0.60;;;;;;;12.34;79.57;99924.75;112223;1209;25224;-62
2021/09/18 04:55:15;;;;;;;2.50;0.70;;;;;;;12.34;79.56;99924.89;112368;1201;25114;-58
2021/09/18 04:57:47;;;;;;;2.30;0.60;;;;;;;12.35;79.50;99929.18;112147;1207;22471;-59
2021/09/18 05:00:18;;;;;;;2.90;0.80;;;;;;;12.34;79.59;99931.39;112021;1209;22463;-61
2021/09/18 05:02:49;;;;;;;3.90;0.60;;;;;;;12.33;79.57;99931.61;114098;1206;22455;-61
2021/09/18 05:05:20;;;;;;;4.10;0.70;;;;;;;12.33;79.49;99929.68;112231;1205;24008;-61
2021/09/18 05:07:51;;;;;;;3.50;0.70;;;;;;;12.35;79.63;99929.27;112076;1205;22437;-61
2021/09/18 05:10:23;;;;;;;2.00;0.60;;;;;;;12.36;79.63;99931.37;111998;1206;24146;-60
2021/09/18 05:12:54;;;;;;;4.10;0.60;;;;;;;12.37;79.52;99932.80;115597;1205;22343;-63
2021/09/18 05:15:25;;;;;;;3.70;0.60;;;;;;;12.37;79.54;99931.33;115582;1205;23213;-61
2021/09/18 05:17:57;;;;;;;2.60;0.60;;;;;;;12.38;79.67;99935.81;115565;1208;22196;-63
2021/09/18 05:20:28;;;;;;;2.80;0.60;;;;;;;12.39;79.54;99928.69;115574;1207;23347;-63
2021/09/18 05:22:58;;;;;;;4.10;0.70;;;;;;;12.40;79.64;99934.65;115594;1208;22812;-62
2021/09/18 05:25:30;;;;;;;2.30;0.70;;;;;;;12.42;79.51;99938.38;115563;1207;22358;-61
2021/09/18 05:28:00;;;;;;;2.30;0.60;;;;;;;12.44;79.68;99939.00;112556;1201;25072;-60
2021/09/18 05:30:32;;;;;;;1.80;0.60;;;;;;;12.45;79.38;99942.94;112028;1209;22461;-61
2021/09/18 05:33:03;;;;;;;2.70;0.60;;;;;;;12.47;79.46;99945.04;112145;1206;23736;-61
2021/09/18 05:35:34;;;;;;;3.90;0.70;;;;;;;12.50;79.62;99948.25;112074;1205;22454;-60
2021/09/18 05:38:05;;;;;;;1.80;0.60;;;;;;;12.52;79.57;99946.29;112086;1209;25148;-62
2021/09/18 05:40:39;;;;;;;2.80;0.80;;;;;;;12.54;79.64;99950.53;112209;1207;22477;-61
2021/09/18 05:43:10;;;;;;;3.70;0.60;;;;;;;12.57;79.68;99942.81;112190;1207;25313;-59
2021/09/18 05:45:41;;;;;;;2.30;0.70;;;;;;;12.61;79.68;99947.83;112155;1206;25161;-61
2021/09/18 05:48:13;;;;;;;3.50;0.60;;;;;;;12.64;79.54;99948.80;112215;1206;22460;-60
2021/09/18 05:50:44;;;;;;;2.80;0.70;;;;;;;12.67;79.41;99950.70;112130;1209;22741;-62
2021/09/18 05:53:16;;;;;;;1.70;0.60;;;;;;;12.69;79.32;99953.37;112209;1205;22474;-61
2021/09/18 05:55:49;;;;;;;3.40;0.80;;;;;;;12.71;79.28;99949.05;112075;1205;22460;-58
2021/09/18 05:58:20;;;;;;;5.10;0.90;;;;;;;12.71;79.35;99949.31;112028;1205;26142;-61
2021/09/18 06:00:51;;;;;;;4.80;0.80;;;;;;;12.72;79.16;99948.40;112053;1207;22589;-59
2021/09/18 06:03:22;;;;;;;3.00;1.10;;;;;;;12.73;79.17;99948.81;112113;1205;25233;-59
2021/09/18 06:05:54;;;;;;;4.20;0.50;;;;;;;12.75;79.18;99951.73;112170;1207;25351;-59
2021/09/18 06:08:26;;;;;;;3.00;0.60;;;;;;;12.77;79.17;99952.86;112202;1207;23355;-60
2021/09/18 06:10:57;;;;;;;3.10;0.50;;;;;;;12.79;79.01;99950.58;112246;1206;22395;-59
2021/09/18 06:13:28;;;;;;;2.90;0.50;;;;;;;12.82;78.99;99949.02;111977;1209;24089;-59
2021/09/18 06:15:59;;;;;;;2.00;0.50;;;;;;;12.86;79.10;99945.61;112133;1209;22496;-59
2021/09/18 06:18:31;;;;;;;4.40;0.60;;;;;;;12.90;78.95;99944.93;112172;1206;23669;-61
2021/09/18 06:21:04;;;;;;;5.10;0.50;;;;;;;12.94;79.01;99945.61;112124;1205;22402;-59
2021/09/18 06:23:37;;;;;;;1.60;0.50;;;;;;;12.99;78.80;99945.27;112100;1205;25378;-60
2021/09/18 06:26:10;;;;;;;6.30;1.10;;;;;;;13.01;78.62;99947.36;112075;1205;23927;-58
2021/09/18 06:28:41;;;;;;;6.40;0.90;;;;;;;13.04;78.55;99947.70;111692;1208;25158;-58
2021/09/18 06:31:12;;;;;;;2.40;0.60;;;;;;;13.04;78.34;99946.09;111519;1205;22682;-63
2021/09/18 06:33:44;;;;;;;3.80;0.90;;;;;;;13.05;78.17;99947.52;111520;1206;24077;-59
2021/09/18 06:36:15;;;;;;;2.30;0.50;;;;;;;13.06;78.36;99944.86;111705;1205;22421;-58
2021/09/18 06:38:46;;;;;;;3.50;0.50;;;;;;;13.08;78.19;99944.02;111458;1206;24087;-58
2021/09/18 06:41:18;;;;;;;1.70;0.60;;;;;;;13.09;78.13;99943.52;111568;1205;25104;-59
2021/09/18 06:43:50;;;;;;;2.50;0.60;;;;;;;13.11;78.01;99948.00;111466;1206;25273;-60
2021/09/18 06:46:22;;;;;;;4.30;0.60;;;;;;;13.14;77.89;99950.61;111452;1205;22919;-59
2021/09/18 06:48:53;;;;;;;1.80;0.50;;;;;;;13.16;77.96;99949.15;111481;1206;22447;-58
2021/09/18 06:51:24;;;;;;;2.00;0.60;;;;;;;13.19;77.97;99949.71;111424;1205;23854;-57
2021/09/18 06:53:55;;;;;;;3.30;0.50;;;;;;;13.23;77.97;99951.57;111443;1207;25232;-59
2021/09/18 06:56:26;;;;;;;3.10;0.50;;;;;;;13.26;77.90;99949.79;111320;1205;25172;-59
2021/09/18 06:58:57;;;;;;;3.00;0.40;;;;;;;13.30;77.84;99947.88;111505;1205;22459;-60
2021/09/18 07:01:27;;;;;;;3.20;0.60;;;;;;;13.34;77.73;99953.79;111837;1205;22537;-62
2021/09/18 07:03:58;;;;;;;5.80;0.60;;;;;;;13.36;77.55;99959.52;111391;1206;25071;-58
2021/09/18 07:06:29;;;;;;;2.40;0.60;;;;;;;13.38;77.62;99960.23;111420;1205;22447;-59
2021/09/18 07:09:03;;;;;;;4.30;0.50;;;;;;;13.38;77.44;99958.95;111598;1205;25189;-60
2021/09/18 07:11:34;;;;;;;2.20;0.50;;;;;;;13.40;77.49;99960.48;111974;1209;22492;-60
2021/09/18 07:14:06;;;;;;;1.80;0.50;;;;;;;13.45;77.67;99963.41;112015;1206;25229;-61
2021/09/18 07:16:37;;;;;;;0.80;0.40;;;;;;;13.47;77.40;99965.87;111870;1206;27271;-62
2021/09/18 07:19:09;;;;;;;2.90;0.50;;;;;;;13.49;77.35;99957.81;111773;1209;24185;-62
2021/09/18 07:21:40;;;;;;;1.60;0.40;;;;;;;13.54;77.48;99960.67;111863;1206;24050;-59
2021/09/18 07:24:12;;;;;;;1.90;0.40;;;;;;;13.59;77.18;99962.22;111994;1206;25073;-59
2021/09/18 07:26:43;;;;;;;0.70;0.30;;;;;;;13.64;77.24;99959.18;111732;1205;23995;-60
2021/09/18 07:29:14;;;;;;;1.80;0.40;;;;;;;13.67;76.91;99961.33;111905;1205;22454;-63
2021/09/18 07:31:45;;;;;;;1.20;0.30;;;;;;;13.67;76.79;99962.95;111680;1205;24128;-62
2021/09/18 07:34:16;;;;;;;1.30;0.30;;;;;;;13.65;76.39;99967.09;111799;1205;25093;-63
2021/09/18 07:36:50;;;;;;;1.30;0.30;;;;;;;13.64;76.38;99963.98;111858;1205;25259;-68
2021/09/18 07:39:21;;;;;;;2.40;0.40;;;;;;;13.65;76.77;99969.48;112477;1206;24066;-63
2021/09/18 07:42:02;;;;;;;3.20;0.40;;;;;;;13.71;76.72;99967.45;111738;1206;22457;-62
2021/09/18 07:44:34;;;;;;;2.40;0.40;;;;;;;13.79;76.70;99965.78;111771;1205;22488;-59
2021/09/18 07:47:05;;;;;;;2.30;0.30;;;;;;;13.87;76.69;99970.14;111596;1205;22453;-59
2021/09/18 07:49:37;;;;;;;1.90;0.40;;;;;;;13.95;76.41;99969.48;111634;1205;25093;-60
2021/09/18 07:52:08;;;;;;;2.60;0.30;;;;;;;14.02;76.30;99966.27;111870;1207;22515;-59
2021/09/18 07:54:39;;;;;;;0.80;0.30;;;;;;;14.08;76.33;99964.23;111578;1205;24163;-59
2021/09/18 07:57:12;;;;;;;2.00;0.50;;;;;;;14.14;76.22;99964.84;111553;1205;22476;-59
2021/09/18 07:59:43;;;;;;;2.00;0.30;;;;;;;14.18;75.91;99967.66;111569;1205;22461;-59
2021/09/18 08:02:14;;;;;;;1.10;0.30;;;;;;;14.21;75.74;99969.86;111496;1205;25335;-59
2021/09/18 08:04:45;;;;;;;2.70;0.50;;;;;;;14.25;75.82;99967.30;111621;1205;25154;-59
2021/09/18 08:07:18;;;;;;;2.30;0.40;;;;;;;14.33;76.04;99966.20;111497;1208;22459;-61
2021/09/18 08:09:52;;;;;;;1.20;0.30;;;;;;;14.42;75.30;99966.96;111547;1205;22457;-59
2021/09/18 08:12:24;;;;;;;1.10;0.30;;;;;;;14.49;75.17;99966.43;111614;1206;25144;-59
2021/09/18 08:14:55;;;;;;;1.90;0.30;;;;;;;14.55;74.87;99968.98;111751;1206;22455;-59
2021/09/18 08:17:27;;;;;;;2.30;0.30;;;;;;;14.60;75.21;99967.85;111292;1206;22646;-59
2021/09/18 08:19:58;;;;;;;1.40;0.30;;;;;;;14.66;75.00;99975.66;111549;1207;22551;-58
2021/09/18 08:22:29;;;;;;;1.80;0.20;;;;;;;14.70;74.43;99978.77;111342;1206;22460;-58
2021/09/18 08:25:00;;;;;;;0.70;0.20;;;;;;;14.71;74.05;99977.70;111604;1206;24108;-59
2021/09/18 08:27:31;;;;;;;3.70;0.30;;;;;;;14.73;74.00;99977.95;111517;1205;22490;-59
2021/09/18 08:30:02;;;;;;;5.30;0.50;;;;;;;14.78;74.43;99978.03;111554;1206;24095;-59
2021/09/18 08:32:33;;;;;;;2.70;0.40;;;;;;;14.84;73.99;99978.69;111750;1205;22461;-59
2021/09/18 08:35:06;;;;;;;3.70;0.50;;;;;;;14.85;73.69;99981.60;111594;1205;22740;-60
2021/09/18 08:37:37;;;;;;;0.90;0.30;;;;;;;14.86;73.57;99983.73;111649;1206;23239;-63
2021/09/18 08:40:10;;;;;;;1.30;0.40;;;;;;;14.84;73.43;99979.36;111532;1205;22474;-62
2021/09/18 08:42:43;;;;;;;1.50;0.40;;;;;;;14.82;73.78;99980.98;111351;1206;22457;-62
2021/09/18 08:45:15;;;;;;;1.90;0.40;;;;;;;14.83;73.50;99979.46;111675;1205;22471;-60
2021/09/18 08:47:47;;;;;;;1.80;0.40;;;;;;;14.88;73.52;99976.02;111653;1205;22861;-61
2021/09/18 08:50:20;;;;;;;3.40;0.40;;;;;;;14.95;73.48;99975.02;111857;1206;22377;-61
2021/09/18 08:52:53;;;;;;;1.90;0.30;;;;;;;15.02;73.54;99977.77;111563;1205;25104;-63
2021/09/18 08:55:24;;;;;;;1.80;0.40;;;;;;;15.12;73.54;99971.29;111907;1205;22479;-61
2021/09/18 08:57:56;;;;;;;2.10;0.40;;;;;;;15.26;73.52;99970.92;111427;1205;22457;-63
2021/09/18 09:00:52;;;;;;;1.30;0.40;;;;;;;15.42;73.05;99972.40;111345;1206;24083;-63
2021/09/18 09:03:29;;;;;;;1.80;0.40;;;;;;;15.50;72.28;99972.54;111330;1205;22459;-61
2021/09/18 09:06:06;;;;;;;1.60;0.40;;;;;;;15.55;72.40;99965.80;111494;1205;25187;-61
2021/09/18 09:08:39;;;;;;;2.00;0.40;;;;;;;15.62;72.16;99964.45;111305;1206;24103;-61
2021/09/18 09:11:19;;;;;;;4.70;0.40;;;;;;;15.69;71.90;99961.58;111467;1206;22453;-62
2021/09/18 09:14:01;;;;;;;2.70;0.20;;;;;;;15.72;71.57;99954.75;111508;1206;22457;-62
2021/09/18 09:16:34;;;;;;;0.80;0.20;;;;;;;15.79;71.47;99951.28;111840;1206;22453;-62
2021/09/18 09:19:17;;;;;;;1.20;0.10;;;;;;;15.83;71.28;99952.84;111427;1205;22918;-62
2021/09/18 09:21:54;;;;;;;1.50;0.30;;;;;;;15.85;70.82;99956.00;111425;1205;25202;-61
2021/09/18 09:24:26;;;;;;;0.60;0.30;;;;;;;15.86;70.82;99953.58;111262;1205;22994;-61
2021/09/18 09:27:12;;;;;;;0.80;0.20;;;;;;;15.88;70.47;99952.95;111550;1206;25099;-62
2021/09/18 09:29:48;;;;;;;1.20;0.30;;;;;;;15.89;70.70;99955.56;111692;1205;22460;-61
2021/09/18 09:32:33;;;;;;;1.00;0.20;;;;;;;15.92;70.50;99951.86;111466;1205;22440;-63
2021/09/18 09:35:08;;;;;;;1.70;0.30;;;;;;;15.90;70.29;99948.28;111566;1206;24235;-62
2021/09/18 09:37:51;;;;;;;1.20;0.20;;;;;;;15.87;70.50;99951.69;111282;1205;22445;-62
2021/09/18 09:40:34;;;;;;;1.10;0.30;;;;;;;15.83;69.92;99954.94;111213;1206;22472;-62
2021/09/18 09:43:07;;;;;;;1.90;0.20;;;;;;;15.71;70.27;99961.46;111419;1206;25256;-62
2021/09/18 09:45:38;;;;;;;1.20;0.20;;;;;;;15.65;70.11;99964.02;111223;1206;25268;-62
2021/09/18 09:48:14;;;;;;;1.40;0.10;;;;;;;15.58;70.23;99962.96;111524;1205;24141;-61
2021/09/18 09:50:57;;;;;;;0.90;0.20;;;;;;;15.56;70.39;99962.84;111275;1205;24237;-62
2021/09/18 09:53:30;;;;;;;1.00;0.30;;;;;;;15.56;70.67;99964.94;111246;1205;22448;-62
2021/09/18 09:56:06;;;;;;;2.40;0.30;;;;;;;15.56;70.59;99962.27;111569;1205;22495;-62
2021/09/18 09:58:58;;;;;;;1.60;0.10;;;;;;;15.56;70.73;99968.51;111264;1206;25194;-62
2021/09/18 10:01:29;;;;;;;0.80;0.20;;;;;;;15.51;70.36;99970.89;111391;1206;22444;-62
2021/09/18 10:04:00;;;;;;;1.40;0.40;;;;;;;15.43;70.61;99971.84;111227;1206;22477;-62
2021/09/18 10:06:34;;;;;;;0.80;0.10;;;;;;;15.40;70.74;99971.63;111214;1205;24952;-62
2021/09/18 10:09:06;;;;;;;1.60;0.30;;;;;;;15.37;70.80;99974.25;111272;1206;25148;-62
2021/09/18 10:11:38;;;;;;;3.00;0.30;;;;;;;15.33;71.06;99976.08;111445;1205;22471;-62
2021/09/18 10:14:14;;;;;;;1.50;0.10;;;;;;;15.28;70.97;99983.09;111254;1206;23087;-62
2021/09/18 10:16:45;;;;;;;1.10;0.10;;;;;;;15.16;70.93;99982.21;111522;1206;25001;-61
2021/09/18 10:19:18;;;;;;;2.30;0.40;;;;;;;15.10;71.59;99982.09;111552;1205;24578;-60
2021/09/18 10:24:40;;;;;;;0.90;0.20;;;;;;;15.02;72.94;99988.55;111255;1205;25148;-60
2021/09/18 10:27:21;;;;;;;1.30;0.20;;;;;;;14.91;73.79;99993.34;111347;1206;25159;-61
2021/09/18 10:29:56;;;;;;;4.60;0.20;;;;;;;14.80;74.37;99995.50;111400;1206;22412;-61
2021/09/18 10:32:27;;;;;;;2.50;0.30;;;;;;;14.82;74.73;99995.86;111503;1205;22476;-61
2021/09/18 10:35:17;;;;;;;0.50;0.10;;;;;;;14.85;74.98;99998.01;111575;1206;22466;-60
2021/09/18 10:37:48;;;;;;;0.50;0.20;;;;;;;14.89;74.64;100001.67;111495;1206;25181;-60
2021/09/18 10:40:20;;;;;;;1.10;0.20;;;;;;;14.91;74.74;100002.89;111598;1206;22457;-61
2021/09/18 10:42:52;;;;;;;1.20;0.20;;;;;;;14.93;74.76;100006.52;111420;1206;22800;-60
2021/09/18 10:45:46;;;;;;;5.30;0.40;;;;;;;14.90;75.11;100006.27;111593;1206;23125;-62
2021/09/18 10:48:46;;;;;;;1.20;0.20;;;;;;;14.88;75.22;100000.14;111374;1206;22510;-60
2021/09/18 10:51:43;;;;;;;3.10;0.30;;;;;;;14.86;75.22;100001.83;111752;1205;22581;-60
2021/09/18 10:54:19;;;;;;;3.40;0.30;;;;;;;14.85;75.27;100003.31;111213;1209;22459;-60
2021/09/18 10:57:02;;;;;;;1.10;0.30;;;;;;;14.82;75.33;99999.17;111033;1209;24126;-59
2021/09/18 10:59:44;;;;;;;1.20;0.30;;;;;;;14.84;75.56;99999.80;111284;1209;26297;-60
2021/09/18 11:02:46;;;;;;;4.00;0.60;;;;;;;14.88;75.73;99998.86;111136;1209;25071;-61
2021/09/18 11:05:47;;;;;;;1.40;0.40;;;;;;;14.89;75.89;99997.02;111361;1209;24174;-61
2021/09/18 11:08:37;;;;;;;2.30;0.60;;;;;;;14.87;76.11;100003.31;111198;1211;24123;-61
2021/09/18 11:11:13;;;;;;;1.60;0.40;;;;;;;14.87;76.66;99999.22;111275;1210;22473;-60
2021/09/18 11:13:47;;;;;;;1.40;0.40;;;;;;;14.88;77.20;100004.94;111213;1209;22467;-60
2021/09/18 11:16:39;;;;;;;1.20;0.40;;;;;;;14.82;77.26;100006.29;110992;1209;22467;-61
2021/09/18 11:19:11;;;;;;;1.20;0.40;;;;;;;14.78;77.41;100004.45;111027;1209;22461;-59
2021/09/18 11:21:45;;;;;;;2.00;0.60;;;;;;;14.74;77.53;100005.27;111300;1209;24077;-60
2021/09/18 11:24:27;;;;;;;2.00;0.40;;;;;;;14.67;77.80;100005.33;111150;1209;24098;-63
2021/09/18 11:26:59;;;;;;;1.50;0.40;;;;;;;14.61;77.93;100001.62;111026;1209;22645;-62
2021/09/18 11:29:34;;;;;;;1.10;0.30;;;;;;;14.56;77.87;100006.83;111135;1209;22468;-63
2021/09/18 11:32:11;;;;;;;2.20;0.40;;;;;;;14.52;78.30;100003.41;111400;1205;22454;-60
2021/09/18 11:34:49;;;;;;;2.30;0.50;;;;;;;14.50;78.88;100011.02;111345;1205;22790;-62
2021/09/18 11:37:27;;;;;;;2.60;0.30;;;;;;;14.47;78.89;100010.27;111459;1205;22476;-62
2021/09/18 11:40:02;;;;;;;2.10;0.40;;;;;;;14.43;79.09;100011.13;111457;1206;23524;-62
2021/09/18 11:42:38;;;;;;;1.00;0.40;;;;;;;14.39;79.46;100004.91;111613;1205;22662;-61
2021/09/18 11:45:20;;;;;;;2.90;0.40;;;;;;;14.38;79.44;100006.33;111426;1205;22456;-61
2021/09/18 11:47:56;;;;;;;1.70;0.40;;;;;;;14.36;79.51;100002.71;111730;1205;25151;-66
2021/09/18 11:50:30;;;;;;;1.40;0.50;;;;;;;14.37;79.64;99998.00;111271;1205;25046;-60
2021/09/18 11:53:03;;;;;;;4.30;0.50;;;;;;;14.39;79.57;99996.07;111404;1206;22473;-63
2021/09/18 11:55:41;;;;;;;1.60;0.40;;;;;;;14.46;79.94;99993.66;111397;1206;24099;-62
2021/09/18 11:58:15;;;;;;;1.40;0.50;;;;;;;14.53;79.69;99994.63;111354;1205;22456;-62